createdAt,value
2023-02-06T00:00:15.447Z,-0.93
2023-02-06T00:02:45.838Z,-0.94
2023-02-06T00:05:16.291Z,-0.97
2023-02-06T00:07:46.684Z,-0.95
2023-02-06T00:10:17.218Z,-0.90
2023-02-06T00:12:47.637Z,-0.92
2023-02-06T00:15:20.730Z,-0.95
2023-02-06T00:17:54.052Z,-0.96
2023-02-06T00:20:24.711Z,-0.98
2023-02-06T00:22:55.114Z,-0.98
2023-02-06T00:25:25.466Z,-1.01
2023-02-06T00:27:55.860Z,-1.04
2023-02-06T00:30:30.269Z,-1.09
2023-02-06T00:33:00.556Z,-1.10
2023-02-06T00:35:31.460Z,-1.09
2023-02-06T00:38:02.603Z,-1.12
2023-02-06T00:40:32.982Z,-1.11
2023-02-06T00:43:03.316Z,-1.15
2023-02-06T00:45:36.713Z,-1.19
2023-02-06T00:48:09.250Z,-1.21
2023-02-06T00:50:40.579Z,-1.23
2023-02-06T00:53:11.429Z,-1.24
2023-02-06T00:55:41.879Z,-1.25
2023-02-06T00:58:12.329Z,-1.23
2023-02-06T01:00:48.130Z,-1.22
2023-02-06T01:03:18.502Z,-1.19
2023-02-06T01:05:49.079Z,-1.23
2023-02-06T01:08:19.636Z,-1.21
2023-02-06T01:10:50.066Z,-1.26
2023-02-06T01:13:20.392Z,-1.28
2023-02-06T01:15:54.154Z,-1.30
2023-02-06T01:18:24.555Z,-1.30
2023-02-06T01:20:54.931Z,-1.35
2023-02-06T01:23:26.162Z,-1.36
2023-02-06T01:25:56.236Z,-1.40
2023-02-06T01:28:27.288Z,-1.43
2023-02-06T01:31:00.433Z,-1.43
2023-02-06T01:33:30.809Z,-1.35
2023-02-06T01:36:01.200Z,-1.38
2023-02-06T01:38:33.292Z,-1.40
2023-02-06T01:41:05.299Z,-1.40
2023-02-06T01:43:39.747Z,-1.39
2023-02-06T01:46:13.310Z,-1.44
2023-02-06T01:48:47.727Z,-1.50
2023-02-06T01:51:22.255Z,-1.54
2023-02-06T01:53:57.510Z,-1.56
2023-02-06T01:56:30.306Z,-1.55
2023-02-06T01:59:05.456Z,-1.54
2023-02-06T02:01:39.050Z,-1.54
2023-02-06T02:04:12.083Z,-1.53
2023-02-06T02:06:43.963Z,-1.52
2023-02-06T02:09:14.467Z,-1.51
2023-02-06T02:11:44.955Z,-1.58
2023-02-06T02:14:18.844Z,-1.60
2023-02-06T02:17:08.791Z,-1.60
2023-02-06T02:20:37.967Z,-1.61
2023-02-06T02:23:31.441Z,-1.60
2023-02-06T02:27:00.958Z,-1.64
2023-02-06T02:29:57.297Z,-1.64
2023-02-06T02:33:18.510Z,-1.64
2023-02-06T02:35:57.398Z,-1.65
2023-02-06T02:38:46.965Z,-1.65
2023-02-06T02:41:22.689Z,-1.68
2023-02-06T02:44:01.423Z,-1.70
2023-02-06T02:46:37.908Z,-1.70
2023-02-06T02:49:15.005Z,-1.72
2023-02-06T02:51:50.494Z,-1.75
2023-02-06T02:54:21.939Z,-1.78
2023-02-06T02:56:52.444Z,-1.78
2023-02-06T02:59:28.904Z,-1.80
2023-02-06T03:02:05.451Z,-1.80
2023-02-06T03:04:43.997Z,-1.76
2023-02-06T03:07:29.920Z,-1.71
2023-02-06T03:10:09.573Z,-1.74
2023-02-06T03:12:48.059Z,-1.74
2023-02-06T03:15:27.621Z,-1.72
2023-02-06T03:18:04.458Z,-1.72
2023-02-06T03:20:36.463Z,-1.66
2023-02-06T03:23:11.525Z,-1.73
2023-02-06T03:25:45.984Z,-1.68
2023-02-06T03:28:23.713Z,-1.74
2023-02-06T03:30:57.355Z,-1.76
2023-02-06T03:33:33.945Z,-1.75
2023-02-06T03:36:05.320Z,-1.66
2023-02-06T03:38:38.360Z,-1.63
2023-02-06T03:41:09.580Z,-1.67
2023-02-06T03:43:40.253Z,-1.69
2023-02-06T03:46:13.227Z,-1.70
2023-02-06T03:48:48.673Z,-1.70
2023-02-06T03:51:22.936Z,-1.70
2023-02-06T03:53:59.277Z,-1.69
2023-02-06T03:56:37.139Z,-1.67
2023-02-06T03:59:07.507Z,-1.68
2023-02-06T04:01:38.582Z,-1.66
2023-02-06T04:04:09.831Z,-1.64
2023-02-06T04:06:40.042Z,-1.63
2023-02-06T04:09:12.961Z,-1.64
2023-02-06T04:11:43.304Z,-1.65
2023-02-06T04:14:13.572Z,-1.60
2023-02-06T04:16:43.964Z,-1.61
2023-02-06T04:19:14.303Z,-1.62
2023-02-06T04:21:44.614Z,-1.61
2023-02-06T04:24:17.573Z,-1.61
2023-02-06T04:26:47.889Z,-1.60
2023-02-06T04:29:18.245Z,-1.57
2023-02-06T04:31:48.699Z,-1.57
2023-02-06T04:34:18.941Z,-1.54
2023-02-06T04:36:49.256Z,-1.51
2023-02-06T04:39:22.126Z,-1.46
2023-02-06T04:41:52.491Z,-1.45
2023-02-06T04:44:22.942Z,-1.53
2023-02-06T04:46:53.311Z,-1.48
2023-02-06T04:49:23.887Z,-1.46
2023-02-06T04:51:54.395Z,-1.44
2023-02-06T04:54:27.433Z,-1.46
2023-02-06T04:56:57.836Z,-1.43
2023-02-06T04:59:28.235Z,-1.36
2023-02-06T05:01:58.620Z,-1.30
2023-02-06T05:04:29.202Z,-1.24
2023-02-06T05:06:59.602Z,-1.18
2023-02-06T05:09:32.823Z,-1.12
2023-02-06T05:12:03.224Z,-1.10
2023-02-06T05:14:33.659Z,-1.08
2023-02-06T05:17:03.971Z,-1.07
2023-02-06T05:19:34.563Z,-1.06
2023-02-06T05:22:04.972Z,-1.07
2023-02-06T05:24:37.972Z,-1.09
2023-02-06T05:27:08.277Z,-1.03
2023-02-06T05:29:38.586Z,-1.04
2023-02-06T05:32:09.028Z,-0.97
2023-02-06T05:34:39.464Z,-1.00
2023-02-06T05:37:09.914Z,-0.95
2023-02-06T05:39:42.901Z,-0.93
2023-02-06T05:42:13.192Z,-0.89
2023-02-06T05:44:43.522Z,-0.80
2023-02-06T05:47:13.956Z,-0.77
2023-02-06T05:49:44.683Z,-0.76
2023-02-06T05:52:15.115Z,-0.75
2023-02-06T05:54:48.154Z,-0.71
2023-02-06T05:57:18.542Z,-0.64
2023-02-06T05:59:48.906Z,-0.60
2023-02-06T06:02:19.250Z,-0.59
2023-02-06T06:04:49.650Z,-0.54
2023-02-06T06:07:22.923Z,-0.60
2023-02-06T06:09:55.865Z,-0.65
2023-02-06T06:12:26.202Z,-0.62
2023-02-06T06:14:56.777Z,-0.58
2023-02-06T06:17:27.033Z,-0.65
2023-02-06T06:19:57.397Z,-0.68
2023-02-06T06:22:27.769Z,-0.65
2023-02-06T06:25:00.713Z,-0.74
2023-02-06T06:27:30.986Z,-0.68
2023-02-06T06:30:01.359Z,-0.61
2023-02-06T06:32:31.650Z,-0.57
2023-02-06T06:35:02.036Z,-0.62
2023-02-06T06:37:32.505Z,-0.60
2023-02-06T06:40:05.428Z,-0.49
2023-02-06T06:42:35.792Z,-0.43
2023-02-06T06:45:06.410Z,-0.33
2023-02-06T06:47:36.905Z,-0.24
2023-02-06T06:50:08.775Z,-0.16
2023-02-06T06:52:39.613Z,-0.11
2023-02-06T06:55:12.967Z,-0.03
2023-02-06T06:57:43.291Z,0.06
2023-02-06T07:00:16.292Z,0.11
2023-02-06T07:02:47.272Z,0.19
2023-02-06T07:05:17.748Z,0.14
2023-02-06T07:07:48.164Z,0.22
2023-02-06T07:10:21.363Z,0.34
2023-02-06T07:12:53.651Z,0.45
2023-02-06T07:15:24.194Z,0.59
2023-02-06T07:17:54.824Z,0.70
2023-02-06T07:20:25.438Z,0.76
2023-02-06T07:22:55.882Z,0.86
2023-02-06T07:25:28.819Z,0.89
2023-02-06T07:27:59.239Z,0.77
2023-02-06T07:30:29.607Z,0.86
2023-02-06T07:32:59.963Z,0.99
2023-02-06T07:35:30.465Z,1.08
2023-02-06T07:38:00.903Z,1.12
2023-02-06T07:40:44.726Z,1.09
2023-02-06T07:43:15.757Z,1.11
2023-02-06T07:45:46.697Z,1.08
2023-02-06T07:48:17.353Z,1.02
2023-02-06T07:50:47.722Z,1.02
2023-02-06T07:53:18.142Z,1.00
2023-02-06T07:55:51.392Z,1.11
2023-02-06T07:58:21.796Z,1.10
2023-02-06T08:00:52.187Z,1.09
2023-02-06T08:03:22.502Z,1.07
2023-02-06T08:05:52.791Z,1.01
2023-02-06T08:08:23.104Z,0.91
2023-02-06T08:10:55.985Z,0.90
2023-02-06T08:13:26.352Z,0.91
2023-02-06T08:15:56.658Z,1.02
2023-02-06T08:18:27.084Z,1.05
2023-02-06T08:20:57.352Z,1.10
2023-02-06T08:23:28.051Z,1.14
2023-02-06T08:26:09.359Z,1.19
2023-02-06T08:28:42.392Z,1.29
2023-02-06T08:31:14.367Z,1.38
2023-02-06T08:33:45.300Z,1.49
2023-02-06T08:36:17.644Z,1.47
2023-02-06T08:38:48.628Z,1.41
2023-02-06T08:41:24.774Z,1.31
2023-02-06T08:43:58.828Z,1.23
2023-02-06T08:46:32.584Z,1.04
2023-02-06T08:49:05.554Z,0.95
2023-02-06T08:51:37.038Z,0.83
2023-02-06T08:54:11.339Z,0.86
2023-02-06T08:56:44.479Z,0.87
2023-02-06T08:59:17.149Z,0.84
2023-02-06T09:01:49.483Z,0.82
2023-02-06T09:04:20.433Z,0.95
2023-02-06T09:06:52.313Z,0.95
2023-02-06T09:09:23.106Z,0.98
2023-02-06T09:11:59.091Z,1.05
2023-02-06T09:14:29.526Z,1.06
2023-02-06T09:17:00.016Z,1.12
2023-02-06T09:19:30.472Z,1.16
2023-02-06T09:22:01.032Z,1.16
2023-02-06T09:24:32.388Z,1.19
2023-02-06T09:27:05.632Z,1.12
2023-02-06T09:29:36.349Z,1.20
2023-02-06T09:32:07.311Z,1.29
2023-02-06T09:34:38.235Z,1.32
2023-02-06T09:37:09.487Z,1.41
2023-02-06T09:39:39.830Z,1.42
2023-02-06T09:42:19.926Z,1.38
2023-02-06T09:44:54.309Z,1.43
2023-02-06T09:47:30.474Z,1.39
2023-02-06T09:50:07.526Z,1.33
2023-02-06T09:52:55.666Z,1.34
2023-02-06T09:55:35.380Z,1.39
2023-02-06T09:58:25.012Z,1.49
2023-02-06T10:01:02.884Z,1.63
2023-02-06T10:03:53.753Z,1.70
2023-02-06T10:06:27.875Z,1.62
2023-02-06T10:09:05.958Z,1.53
2023-02-06T10:11:46.142Z,1.52
2023-02-06T10:14:25.122Z,1.68
2023-02-06T10:17:01.706Z,1.68
2023-02-06T10:19:44.177Z,1.67
2023-02-06T10:22:21.194Z,1.75
2023-02-06T10:24:59.366Z,1.80
2023-02-06T10:27:29.902Z,1.80
2023-02-06T10:30:04.264Z,1.90
2023-02-06T10:32:48.261Z,1.97
2023-02-06T10:35:37.173Z,2.04
2023-02-06T10:38:40.881Z,2.12
2023-02-06T10:41:24.430Z,2.20
2023-02-06T10:44:00.204Z,2.19
2023-02-06T10:46:44.524Z,2.23
2023-02-06T10:49:25.892Z,2.26
2023-02-06T10:52:00.450Z,2.33
2023-02-06T10:54:38.454Z,2.39
2023-02-06T10:57:19.145Z,2.41
2023-02-06T10:59:54.030Z,2.39
2023-02-06T11:02:30.634Z,2.45
2023-02-06T11:05:07.713Z,2.49
2023-02-06T11:07:44.024Z,2.54
2023-02-06T11:10:20.049Z,2.63
2023-02-06T11:12:55.148Z,2.72
2023-02-06T11:15:32.977Z,2.73
2023-02-06T11:18:10.665Z,2.77
2023-02-06T11:20:45.141Z,2.66
2023-02-06T11:23:21.983Z,2.47
2023-02-06T11:26:09.047Z,2.44
2023-02-06T11:28:43.902Z,2.57
2023-02-06T11:31:14.539Z,2.65
2023-02-06T11:33:52.920Z,2.69
2023-02-06T11:36:31.505Z,2.62
2023-02-06T11:39:04.672Z,2.68
2023-02-06T11:41:36.040Z,2.72
2023-02-06T11:44:07.696Z,2.70
2023-02-06T11:46:39.598Z,2.78
2023-02-06T11:49:29.524Z,2.85
2023-02-06T11:52:04.081Z,2.81
2023-02-06T11:54:37.160Z,2.90
2023-02-06T11:57:13.063Z,2.98
2023-02-06T11:59:56.735Z,2.97
2023-02-06T12:02:32.568Z,3.02
2023-02-06T12:05:15.097Z,3.07
2023-02-06T12:07:50.673Z,3.06
2023-02-06T12:10:24.064Z,3.15
2023-02-06T12:12:59.474Z,3.19
2023-02-06T12:15:46.927Z,3.07
2023-02-06T12:18:22.082Z,3.00
2023-02-06T12:21:00.187Z,2.96
2023-02-06T12:23:39.645Z,3.09
2023-02-06T12:26:15.878Z,3.11
2023-02-06T12:28:57.735Z,3.13
2023-02-06T12:31:37.984Z,3.11
2023-02-06T12:34:18.538Z,3.13
2023-02-06T12:37:00.552Z,3.12
2023-02-06T12:39:35.691Z,3.15
2023-02-06T12:42:29.183Z,3.15
2023-02-06T12:45:04.607Z,3.16
2023-02-06T12:47:43.686Z,3.22
2023-02-06T12:50:26.954Z,3.30
2023-02-06T12:53:05.473Z,3.35
2023-02-06T12:55:40.192Z,3.36
2023-02-06T12:58:28.297Z,3.43
2023-02-06T13:01:31.033Z,3.50
2023-02-06T13:04:06.232Z,3.52
2023-02-06T13:06:47.547Z,3.49
2023-02-06T13:09:28.112Z,3.48
2023-02-06T13:12:11.405Z,3.47
2023-02-06T13:14:49.983Z,3.46
2023-02-06T13:17:23.592Z,3.55
2023-02-06T13:20:04.063Z,3.58
2023-02-06T13:22:49.407Z,3.65
2023-02-06T13:25:52.371Z,3.68
2023-02-06T13:29:02.990Z,3.65
2023-02-06T13:31:36.673Z,3.63
2023-02-06T13:34:17.487Z,3.62
2023-02-06T13:36:59.880Z,3.65
2023-02-06T13:39:36.676Z,3.66
2023-02-06T13:42:42.011Z,3.65
2023-02-06T13:45:23.308Z,3.64
2023-02-06T13:48:35.065Z,3.66
2023-02-06T13:51:37.701Z,3.66
2023-02-06T13:54:54.047Z,3.74
2023-02-06T13:57:39.123Z,3.75
2023-02-06T14:00:18.235Z,3.67
2023-02-06T14:02:52.656Z,3.62
2023-02-06T14:05:29.555Z,3.63
2023-02-06T14:08:14.106Z,3.64
2023-02-06T14:11:30.135Z,3.57
2023-02-06T14:14:37.362Z,3.40
2023-02-06T14:17:22.211Z,3.34
2023-02-06T14:20:02.136Z,3.22
2023-02-06T14:22:53.893Z,3.18
2023-02-06T14:25:47.582Z,3.14
2023-02-06T14:28:28.754Z,3.03
2023-02-06T14:31:15.308Z,2.97
2023-02-06T14:34:11.440Z,2.99
2023-02-06T14:37:06.823Z,3.02
2023-02-06T14:39:44.440Z,3.01
2023-02-06T14:42:23.795Z,2.99
2023-02-06T14:45:04.174Z,3.00
2023-02-06T14:47:42.453Z,2.96
2023-02-06T14:50:23.466Z,2.93
2023-02-06T14:52:57.153Z,2.92
2023-02-06T14:55:38.322Z,2.89
2023-02-06T14:58:21.247Z,2.85
2023-02-06T15:00:51.721Z,2.86
2023-02-06T15:03:27.362Z,2.86
2023-02-06T15:06:06.787Z,2.85
2023-02-06T15:08:38.019Z,2.86
2023-02-06T15:11:10.353Z,2.85
2023-02-06T15:13:40.688Z,2.81
2023-02-06T15:16:12.846Z,2.78
2023-02-06T15:18:45.859Z,2.72
2023-02-06T15:21:19.804Z,2.76
2023-02-06T15:24:07.485Z,2.70
2023-02-06T15:26:46.124Z,2.68
2023-02-06T15:29:23.201Z,2.69
2023-02-06T15:31:58.294Z,2.68
2023-02-06T15:34:32.806Z,2.65
2023-02-06T15:37:03.255Z,2.66
2023-02-06T15:39:34.176Z,2.64
2023-02-06T15:42:04.654Z,2.61
2023-02-06T15:44:39.545Z,2.54
2023-02-06T15:47:17.066Z,2.53
2023-02-06T15:49:54.351Z,2.53
2023-02-06T15:52:43.011Z,2.45
2023-02-06T15:55:30.355Z,2.45
2023-02-06T15:58:04.280Z,2.42
2023-02-06T16:00:38.429Z,2.43
2023-02-06T16:03:20.547Z,2.39
2023-02-06T16:05:54.046Z,2.36
2023-02-06T16:08:28.832Z,2.28
2023-02-06T16:11:04.052Z,2.21
2023-02-06T16:13:35.961Z,2.15
2023-02-06T16:16:25.107Z,2.12
2023-02-06T16:18:58.673Z,2.06
2023-02-06T16:21:35.617Z,2.03
2023-02-06T16:24:19.255Z,2.00
2023-02-06T16:26:52.648Z,2.01
2023-02-06T16:29:30.950Z,1.99
2023-02-06T16:32:04.466Z,1.98
2023-02-06T16:34:41.161Z,1.97
2023-02-06T16:37:18.698Z,1.94
2023-02-06T16:39:49.887Z,1.85
2023-02-06T16:42:23.046Z,1.81
2023-02-06T16:45:01.261Z,1.76
2023-02-06T16:47:31.863Z,1.71
2023-02-06T16:50:02.376Z,1.60
2023-02-06T16:52:37.328Z,1.48
2023-02-06T16:55:08.368Z,1.40
2023-02-06T16:57:45.043Z,1.30
2023-02-06T17:00:22.230Z,1.17
2023-02-06T17:02:54.842Z,1.06
2023-02-06T17:05:28.477Z,0.95
2023-02-06T17:08:01.742Z,0.95
2023-02-06T17:10:32.169Z,0.88
2023-02-06T17:13:02.577Z,0.81
2023-02-06T17:15:32.968Z,0.72
2023-02-06T17:18:03.277Z,0.61
2023-02-06T17:20:37.961Z,0.55
2023-02-06T17:23:12.802Z,0.52
2023-02-06T17:25:45.600Z,0.50
2023-02-06T17:28:18.901Z,0.47
2023-02-06T17:30:51.052Z,0.40
2023-02-06T17:33:21.676Z,0.43
2023-02-06T17:35:52.349Z,0.36
2023-02-06T17:38:25.452Z,0.26
2023-02-06T17:40:57.226Z,0.20
2023-02-06T17:43:28.183Z,0.21
2023-02-06T17:45:58.617Z,0.22
2023-02-06T17:48:29.048Z,0.22
2023-02-06T17:50:59.496Z,0.23
2023-02-06T17:53:32.509Z,0.17
2023-02-06T17:56:08.536Z,0.15
2023-02-06T17:58:38.961Z,0.05
2023-02-06T18:01:14.579Z,-0.09
2023-02-06T18:03:47.872Z,-0.21
2023-02-06T18:06:18.479Z,-0.28
2023-02-06T18:08:52.039Z,-0.24
2023-02-06T18:11:25.039Z,-0.22
2023-02-06T18:13:55.993Z,-0.29
2023-02-06T18:16:28.755Z,-0.28
2023-02-06T18:18:59.494Z,-0.28
2023-02-06T18:21:31.084Z,-0.24
2023-02-06T18:24:04.980Z,-0.31
2023-02-06T18:26:35.644Z,-0.32
2023-02-06T18:29:08.068Z,-0.32
2023-02-06T18:31:39.741Z,-0.41
2023-02-06T18:34:11.718Z,-0.41
2023-02-06T18:36:45.283Z,-0.45
2023-02-06T18:39:18.586Z,-0.48
2023-02-06T18:42:01.498Z,-0.49
2023-02-06T18:44:35.036Z,-0.47
2023-02-06T18:47:05.765Z,-0.52
2023-02-06T18:49:37.423Z,-0.60
2023-02-06T18:52:09.385Z,-0.57
2023-02-06T18:54:42.645Z,-0.62
2023-02-06T18:57:13.310Z,-0.79
2023-02-06T18:59:44.168Z,-0.80
2023-02-06T19:02:14.999Z,-0.79
2023-02-06T19:04:45.563Z,-0.99
2023-02-06T19:07:16.733Z,-0.97
2023-02-06T19:09:49.772Z,-0.87
2023-02-06T19:12:20.221Z,-0.87
2023-02-06T19:14:50.851Z,-0.91
2023-02-06T19:17:21.296Z,-0.87
2023-02-06T19:19:51.959Z,-0.81
2023-02-06T19:22:22.575Z,-0.79
2023-02-06T19:24:57.151Z,-0.78
2023-02-06T19:27:28.486Z,-0.77
2023-02-06T19:29:59.160Z,-0.78
2023-02-06T19:32:29.647Z,-0.82
2023-02-06T19:35:00.250Z,-0.82
2023-02-06T19:37:30.803Z,-0.83
2023-02-06T19:40:04.039Z,-0.87
2023-02-06T19:42:34.592Z,-0.93
2023-02-06T19:45:06.452Z,-0.97
2023-02-06T19:47:37.914Z,-0.99
2023-02-06T19:50:09.599Z,-1.05
2023-02-06T19:52:39.971Z,-1.11
2023-02-06T19:55:13.676Z,-1.15
2023-02-06T19:57:43.989Z,-1.17
2023-02-06T20:00:16.275Z,-1.24
2023-02-06T20:02:46.604Z,-1.26
2023-02-06T20:05:18.973Z,-1.30
2023-02-06T20:07:49.616Z,-1.43
2023-02-06T20:10:23.036Z,-1.51
2023-02-06T20:12:53.527Z,-1.52
2023-02-06T20:15:24.026Z,-1.69
2023-02-06T20:17:54.592Z,-1.78
2023-02-06T20:20:25.055Z,-1.75
2023-02-06T20:22:55.391Z,-1.74
2023-02-06T20:25:28.864Z,-1.76
2023-02-06T20:27:59.520Z,-1.78
2023-02-06T20:30:30.007Z,-1.85
2023-02-06T20:33:00.693Z,-1.94
2023-02-06T20:35:31.346Z,-2.08
2023-02-06T20:38:02.208Z,-2.11
2023-02-06T20:40:35.547Z,-2.19
2023-02-06T20:43:06.137Z,-2.29
2023-02-06T20:45:37.432Z,-2.33
2023-02-06T20:48:07.991Z,-2.34
2023-02-06T20:50:38.743Z,-2.41
2023-02-06T20:53:09.329Z,-2.42
2023-02-06T20:55:47.379Z,-2.40
2023-02-06T20:58:17.755Z,-2.37
2023-02-06T21:00:49.856Z,-2.35
2023-02-06T21:03:20.279Z,-2.36
2023-02-06T21:05:59.511Z,-2.33
2023-02-06T21:08:30.398Z,-2.33
2023-02-06T21:11:03.650Z,-2.31
2023-02-06T21:13:34.218Z,-2.35
2023-02-06T21:16:04.822Z,-2.39
2023-02-06T21:18:36.025Z,-2.40
2023-02-06T21:21:11.185Z,-2.46
2023-02-06T21:23:43.166Z,-2.47
2023-02-06T21:26:17.952Z,-2.54
2023-02-06T21:28:49.130Z,-2.55
2023-02-06T21:31:23.158Z,-2.57
2023-02-06T21:33:55.220Z,-2.60
2023-02-06T21:36:25.590Z,-2.61
2023-02-06T21:38:55.889Z,-2.81
2023-02-06T21:41:29.332Z,-2.87
2023-02-06T21:43:59.772Z,-2.86
2023-02-06T21:46:31.095Z,-2.88
2023-02-06T21:49:01.490Z,-2.80
2023-02-06T21:51:31.816Z,-2.84
2023-02-06T21:54:02.150Z,-2.89
2023-02-06T21:56:36.520Z,-2.94
2023-02-06T21:59:07.510Z,-2.94
2023-02-06T22:01:40.626Z,-2.99
2023-02-06T22:04:12.406Z,-3.00
2023-02-06T22:06:43.738Z,-3.04
2023-02-06T22:09:20.807Z,-3.08
2023-02-06T22:11:54.137Z,-3.11
2023-02-06T22:14:24.533Z,-3.10
2023-02-06T22:16:54.870Z,-3.14
2023-02-06T22:19:25.228Z,-3.22
2023-02-06T22:21:55.656Z,-3.30
2023-02-06T22:24:26.051Z,-3.32
2023-02-06T22:26:59.044Z,-3.35
2023-02-06T22:29:30.177Z,-3.38
2023-02-06T22:32:04.460Z,-3.44
2023-02-06T22:34:35.292Z,-3.43
2023-02-06T22:37:05.757Z,-3.47
2023-02-06T22:39:36.175Z,-3.47
2023-02-06T22:42:09.327Z,-3.50
2023-02-06T22:44:39.880Z,-3.51
2023-02-06T22:47:10.339Z,-3.51
2023-02-06T22:49:40.908Z,-3.53
2023-02-06T22:52:31.386Z,-3.56
2023-02-06T22:55:03.503Z,-3.61
2023-02-06T22:57:37.356Z,-3.64
2023-02-06T23:00:12.300Z,-3.64
2023-02-06T23:02:42.947Z,-3.66
2023-02-06T23:05:13.458Z,-3.69
2023-02-06T23:07:43.908Z,-3.71
2023-02-06T23:10:14.278Z,-3.68
2023-02-06T23:12:47.186Z,-3.63
2023-02-06T23:15:17.793Z,-3.62
2023-02-06T23:17:49.689Z,-3.69
2023-02-06T23:20:20.638Z,-3.73
2023-02-06T23:22:51.059Z,-3.72
2023-02-06T23:25:21.514Z,-3.81
2023-02-06T23:27:54.769Z,-3.78
2023-02-06T23:30:25.270Z,-3.81
2023-02-06T23:32:55.706Z,-3.82
2023-02-06T23:35:26.103Z,-3.85
2023-02-06T23:37:56.427Z,-3.79
2023-02-06T23:40:26.747Z,-3.82
2023-02-06T23:42:59.655Z,-3.80
2023-02-06T23:45:30.727Z,-3.83
2023-02-06T23:48:01.186Z,-3.87
2023-02-06T23:50:31.971Z,-3.92
2023-02-06T23:53:02.362Z,-3.98
2023-02-06T23:55:33.024Z,-4.04
2023-02-06T23:58:06.033Z,-4.13
